Airfield :
LOGIN :

Register | Disclaimer

   EN    FR    IT 

 










Legend :    VFR   Marginal VFR   IFR   Intensive IFR   Very Intensive IFR
Visi :
Ceiling :
>= 8 km
>= 3000ft
5 to 8 km
1000 to 3000 ft
1500m to 5 km
500 to 1000 ft
800 to 1500m
200 to 500 ft
< 800m
< 200 ft
Symbols :   Thunderstorms  Fog  Heavy snow  Heavy precipitations  Wind > 20 kt
SIGMETs :     Misc.  Thunderstorms  Icing  Turbulence  Mountain Waves  Volcanic Ashes






- Airport Elevation : 172 ft
- IATA code : LPI


ESSL - Saab

CURRENT METAR :
  • 011820Z AUTO 25010KT 230V310 9999 OVC094/// 08/M00 Q0999

EXPIRED METARs :
  • 011750Z AUTO 25009KT 200V290 9999 BKN082/// OVC098/// 08/M01 Q0999
  • 011720Z AUTO 27012KT 9999 BKN080/// 09/M01 Q1000
  • 011650Z AUTO 26010KT 230V290 9999 BKN084/// 09/M01 Q1000
  • 011620Z AUTO 27011KT 230V300 9999 BKN086/// 09/M01 Q1000
  • 011550Z AUTO 26010KT 230V300 9999 FEW170/// 10/01 Q1001

TAF TAF ESSL
Valid from the 01 at 18:00 until the 01 at 22:00 UTC


011730Z 0118/0122 26010KT CAVOK
PROB40 0120/0122 26015G25KT BKN014



MET'MAP, your aeronautical weather chart ! - Copyright ORBIFLY December 2007 - Disclaimer

ORBIFLY MET'MAP TEAM :

Programming & Development : Alexandra Zaïnal
Concept & original design : Baudouin d'Aumeries
Assistance for programming : Marc-Olivier Méhu
Technical & hardware support : Manuel Goepfert

Contact : metmap@orbifly.com




SOURCES & CREDITS :

   NOAA